Time;durP1;ratioP1;P1;durP2;ratioP2;P2;SDS_P1;SDS_P2;PMS_P1;PMS_P2;Temp;Humidity;BMP_temperature;BMP_pressure;BME280_temperature;BME280_humidity;BME280_pressure;Samples;Min_cycle;Max_cycle;Signal;HPM_P1;HPM_P2
2024/01/19 00:02:41;;;;;;;25.50;11.60;;;;;;;-1.46;87.29;99482.58;129955;1271;114622;-63
2024/01/19 00:05:43;;;;;;;23.00;12.80;;;;;;;-1.44;87.35;99489.02;129780;1257;114913;-63
2024/01/19 00:08:45;;;;;;;20.70;11.60;;;;;;;-1.42;87.21;99491.44;130082;1259;115209;-63
2024/01/19 00:11:47;;;;;;;23.80;12.30;;;;;;;-1.38;87.57;99494.36;129984;1272;114732;-63
2024/01/19 00:14:49;;;;;;;22.20;13.20;;;;;;;-1.37;87.26;99503.81;129700;1254;128090;-63
2024/01/19 00:17:51;;;;;;;26.40;13.10;;;;;;;-1.36;87.19;99511.68;129917;1255;114753;-65
2024/01/19 00:20:53;;;;;;;23.90;13.20;;;;;;;-1.33;87.38;99516.21;130085;1259;115104;-62
2024/01/19 00:23:58;;;;;;;22.60;12.00;;;;;;;-1.31;87.46;99520.02;129889;1259;115388;-64
2024/01/19 00:27:07;;;;;;;23.50;11.20;;;;;;;-1.31;87.39;99519.66;130066;1264;114729;-64
2024/01/19 00:30:12;;;;;;;21.70;12.10;;;;;;;-1.30;87.23;99525.09;129854;1259;115198;-64
2024/01/19 00:33:14;;;;;;;24.70;10.70;;;;;;;-1.28;87.61;99531.72;130215;1258;114722;-66
2024/01/19 00:36:31;;;;;;;24.80;12.30;;;;;;;-1.25;87.41;99536.77;129688;1259;114824;-64
2024/01/19 00:39:35;;;;;;;21.70;12.10;;;;;;;-1.24;87.37;99537.63;129492;1282;115197;-65
2024/01/19 00:42:42;;;;;;;23.50;12.90;;;;;;;-1.21;87.49;99534.61;129478;1264;114904;-65
2024/01/19 00:45:51;;;;;;;23.10;11.10;;;;;;;-1.20;86.94;99541.95;129321;1259;115343;-64
2024/01/19 00:48:53;;;;;;;18.30;10.30;;;;;;;-1.18;87.47;99543.67;129581;1263;114839;-62
2024/01/19 00:51:56;;;;;;;24.20;12.80;;;;;;;-1.16;87.49;99551.20;129708;1273;116264;-63
2024/01/19 00:54:58;;;;;;;22.50;10.80;;;;;;;-1.15;87.44;99553.27;129522;1260;114847;-63
2024/01/19 00:57:59;;;;;;;23.50;11.80;;;;;;;-1.15;87.21;99557.65;129346;1262;114886;-63
2024/01/19 01:01:02;;;;;;;25.00;11.00;;;;;;;-1.14;87.49;99561.14;129647;1262;114973;-63
2024/01/19 01:04:05;;;;;;;20.00;10.20;;;;;;;-1.16;87.27;99566.43;129868;1257;114810;-62
2024/01/19 01:07:08;;;;;;;19.80;9.70;;;;;;;-1.18;87.48;99569.79;129838;1271;115308;-64
2024/01/19 01:10:10;;;;;;;18.60;9.40;;;;;;;-1.19;87.04;99570.48;129927;1277;114794;-62
2024/01/19 01:13:13;;;;;;;21.40;9.40;;;;;;;-1.22;87.20;99574.02;130016;1254;114750;-63
2024/01/19 01:16:14;;;;;;;19.00;10.30;;;;;;;-1.21;87.10;99575.77;129955;1254;114822;-63
2024/01/19 01:19:16;;;;;;;18.90;9.90;;;;;;;-1.20;87.36;99577.69;129798;1256;114744;-63
2024/01/19 01:22:18;;;;;;;21.00;10.40;;;;;;;-1.20;87.48;99577.86;129729;1259;115091;-63
2024/01/19 01:25:20;;;;;;;20.30;10.80;;;;;;;-1.21;87.37;99585.05;129772;1261;114818;-62
2024/01/19 01:28:22;;;;;;;16.60;9.10;;;;;;;-1.23;87.15;99585.09;129795;1259;114687;-63
2024/01/19 01:31:24;;;;;;;21.30;10.90;;;;;;;-1.27;87.15;99592.67;129787;1259;114842;-64
2024/01/19 01:34:26;;;;;;;20.80;10.40;;;;;;;-1.29;86.88;99596.73;129807;1256;115010;-63
2024/01/19 01:37:29;;;;;;;19.30;9.90;;;;;;;-1.35;87.06;99595.73;129716;1259;114770;-63
2024/01/19 01:40:31;;;;;;;23.10;11.40;;;;;;;-1.40;86.84;99599.66;129830;1261;115224;-63
2024/01/19 01:43:33;;;;;;;19.80;11.90;;;;;;;-1.47;86.45;99607.62;129835;1276;114845;-64
2024/01/19 01:46:35;;;;;;;21.70;11.70;;;;;;;-1.53;86.35;99604.35;129781;1259;114814;-65
2024/01/19 01:49:38;;;;;;;19.90;11.00;;;;;;;-1.59;86.69;99607.06;129836;1254;114732;-63
2024/01/19 01:52:43;;;;;;;24.40;13.00;;;;;;;-1.66;86.44;99609.94;129857;1272;114702;-63
2024/01/19 01:55:46;;;;;;;21.60;12.40;;;;;;;-1.74;85.65;99607.58;129807;1259;114738;-63
2024/01/19 01:58:49;;;;;;;21.40;11.20;;;;;;;-1.81;86.34;99610.27;129576;1263;114735;-63
2024/01/19 02:01:51;;;;;;;24.30;11.70;;;;;;;-1.87;86.36;99615.75;129624;1256;114834;-62
2024/01/19 02:04:53;;;;;;;21.90;11.40;;;;;;;-1.95;86.29;99619.34;129859;1259;114809;-63
2024/01/19 02:07:55;;;;;;;21.00;12.00;;;;;;;-2.05;85.85;99624.50;129819;1261;115470;-63
2024/01/19 02:10:57;;;;;;;21.00;11.70;;;;;;;-2.15;85.99;99631.75;129577;1259;128355;-62
2024/01/19 02:13:59;;;;;;;24.00;11.50;;;;;;;-2.24;85.65;99635.34;129808;1257;115231;-62
2024/01/19 02:17:01;;;;;;;25.80;12.20;;;;;;;-2.33;85.64;99639.42;129842;1256;115044;-62
2024/01/19 02:20:03;;;;;;;22.00;10.40;;;;;;;-2.38;85.89;99650.84;129567;1256;115366;-62
2024/01/19 02:23:11;;;;;;;20.00;11.60;;;;;;;-2.49;85.32;99655.27;129902;1256;114699;-63
2024/01/19 02:26:13;;;;;;;20.60;9.40;;;;;;;-2.60;85.57;99658.48;129793;1256;114777;-62
2024/01/19 02:29:18;;;;;;;21.80;11.10;;;;;;;-2.69;85.66;99664.84;129638;1257;114715;-62
2024/01/19 02:32:20;;;;;;;20.80;10.90;;;;;;;-2.78;85.63;99672.93;129764;1257;114804;-64
2024/01/19 02:35:22;;;;;;;18.20;10.50;;;;;;;-2.87;85.39;99678.56;129758;1259;114771;-62
2024/01/19 02:38:24;;;;;;;19.70;9.80;;;;;;;-2.97;85.23;99683.50;129896;1262;114698;-62
2024/01/19 02:41:26;;;;;;;20.70;9.30;;;;;;;-3.08;85.19;99691.59;129808;1259;114783;-63
2024/01/19 02:44:28;;;;;;;19.60;8.70;;;;;;;-3.16;85.36;99700.35;129736;1272;115412;-62
2024/01/19 02:47:30;;;;;;;15.90;8.00;;;;;;;-3.25;84.93;99709.45;129784;1259;114751;-62
2024/01/19 02:50:32;;;;;;;17.10;9.20;;;;;;;-3.33;84.83;99717.86;130000;1254;128805;-62
2024/01/19 02:53:33;;;;;;;15.40;7.70;;;;;;;-3.42;84.97;99726.43;130098;1260;115208;-62
2024/01/19 02:56:35;;;;;;;13.90;8.30;;;;;;;-3.50;85.03;99737.10;129991;1277;114732;-63
2024/01/19 02:59:37;;;;;;;15.60;8.20;;;;;;;-3.57;84.68;99742.34;129623;1264;115544;-62
2024/01/19 03:02:39;;;;;;;15.60;8.20;;;;;;;-3.62;85.03;99748.29;129835;1255;115151;-63
2024/01/19 03:05:41;;;;;;;20.70;9.30;;;;;;;-3.66;85.07;99750.02;129954;1264;114862;-63
2024/01/19 03:08:43;;;;;;;13.30;7.80;;;;;;;-3.69;85.16;99753.52;129770;1262;114785;-63
2024/01/19 03:11:47;;;;;;;15.20;8.30;;;;;;;-3.72;85.09;99761.02;129831;1257;128974;-63
2024/01/19 03:14:49;;;;;;;12.60;8.00;;;;;;;-3.77;84.82;99766.42;129832;1258;114750;-63
2024/01/19 03:17:51;;;;;;;15.30;8.20;;;;;;;-3.82;84.73;99775.33;129904;1272;114910;-63
2024/01/19 03:20:53;;;;;;;15.50;7.10;;;;;;;-3.88;84.82;99777.07;129546;1277;115318;-63
2024/01/19 03:23:55;;;;;;;12.90;6.80;;;;;;;-3.93;85.06;99779.86;130040;1259;114715;-63
2024/01/19 03:26:57;;;;;;;10.50;6.30;;;;;;;-4.01;84.96;99783.51;129970;1277;114794;-62
2024/01/19 03:29:59;;;;;;;15.10;7.00;;;;;;;-4.07;84.62;99784.55;129992;1259;115376;-64
2024/01/19 03:33:01;;;;;;;11.90;6.60;;;;;;;-4.14;84.88;99792.21;129913;1277;114759;-64
2024/01/19 03:36:04;;;;;;;11.10;6.30;;;;;;;-4.20;84.94;99793.58;129975;1260;114732;-63
2024/01/19 03:39:06;;;;;;;12.90;7.70;;;;;;;-4.25;85.00;99796.02;129918;1259;115393;-63
2024/01/19 03:42:08;;;;;;;12.30;6.80;;;;;;;-4.31;84.61;99805.25;129902;1259;114712;-63
2024/01/19 03:45:10;;;;;;;14.30;7.30;;;;;;;-4.37;84.72;99806.79;130064;1257;115320;-64
2024/01/19 03:48:12;;;;;;;11.00;6.70;;;;;;;-4.39;85.00;99814.11;129694;1263;116438;-62
2024/01/19 03:51:14;;;;;;;12.50;6.90;;;;;;;-4.39;85.05;99821.09;129985;1259;115235;-64
2024/01/19 03:54:16;;;;;;;14.60;7.20;;;;;;;-4.36;85.70;99823.02;129973;1259;114976;-64
2024/01/19 03:57:18;;;;;;;13.40;6.60;;;;;;;-4.30;86.22;99823.03;129629;1273;128458;-63
2024/01/19 04:00:20;;;;;;;12.50;7.60;;;;;;;-4.23;85.87;99829.84;129989;1257;114687;-64
2024/01/19 04:03:22;;;;;;;13.80;6.90;;;;;;;-4.18;85.85;99834.92;129959;1277;114703;-63
2024/01/19 04:06:24;;;;;;;12.90;7.40;;;;;;;-4.13;85.98;99837.73;129538;1265;115079;-63
2024/01/19 04:09:26;;;;;;;13.30;7.80;;;;;;;-4.10;85.90;99837.03;129740;1259;114863;-63
2024/01/19 04:12:28;;;;;;;15.80;7.60;;;;;;;-4.07;85.99;99844.20;129919;1259;114963;-63
2024/01/19 04:15:31;;;;;;;12.90;6.80;;;;;;;-4.05;85.92;99845.77;129522;1265;114895;-64
2024/01/19 04:18:33;;;;;;;12.60;6.50;;;;;;;-4.04;85.80;99848.38;129850;1277;114811;-63
2024/01/19 04:21:35;;;;;;;13.80;7.00;;;;;;;-4.05;85.97;99846.98;129855;1258;114674;-62
2024/01/19 04:24:37;;;;;;;11.50;7.10;;;;;;;-4.06;85.87;99849.08;130117;1256;114748;-62
2024/01/19 04:27:39;;;;;;;13.50;7.20;;;;;;;-4.09;85.65;99850.81;129580;1265;114893;-62
2024/01/19 04:30:41;;;;;;;14.40;7.30;;;;;;;-4.16;85.48;99847.66;129975;1277;115155;-62
2024/01/19 04:33:43;;;;;;;12.00;6.60;;;;;;;-4.21;85.41;99855.83;129814;1256;114807;-63
2024/01/19 04:36:47;;;;;;;13.20;7.60;;;;;;;-4.30;85.30;99850.92;129828;1259;114775;-64
2024/01/19 04:39:49;;;;;;;11.40;7.10;;;;;;;-4.37;84.77;99852.81;129900;1257;129001;-63
2024/01/19 04:42:52;;;;;;;12.00;7.30;;;;;;;-4.44;84.65;99845.83;130170;1260;114728;-64
2024/01/19 04:45:54;;;;;;;15.50;7.50;;;;;;;-4.52;85.00;99850.49;130043;1259;114827;-62
2024/01/19 04:48:56;;;;;;;13.60;7.30;;;;;;;-4.61;84.97;99853.23;129894;1259;114786;-63
2024/01/19 04:51:58;;;;;;;13.60;7.60;;;;;;;-4.69;84.51;99863.82;129384;1264;116169;-63
2024/01/19 04:55:01;;;;;;;12.90;6.80;;;;;;;-4.76;84.82;99866.22;129548;1256;114880;-64
2024/01/19 04:58:03;;;;;;;12.60;7.20;;;;;;;-4.84;84.83;99867.73;129716;1262;114724;-63
2024/01/19 05:01:05;;;;;;;13.20;7.20;;;;;;;-4.92;84.47;99872.56;129813;1279;114782;-63
2024/01/19 05:04:07;;;;;;;14.90;7.00;;;;;;;-5.00;84.15;99876.00;129378;1264;114756;-63
2024/01/19 05:07:09;;;;;;;14.10;7.00;;;;;;;-5.08;84.32;99873.51;129631;1262;114733;-63
2024/01/19 05:10:11;;;;;;;15.50;7.30;;;;;;;-5.13;84.47;99878.68;129665;1279;114773;-63
2024/01/19 05:13:13;;;;;;;15.80;7.60;;;;;;;-5.20;84.54;99888.73;129438;1266;114976;-63
2024/01/19 05:16:15;;;;;;;15.00;8.20;;;;;;;-5.26;84.25;99892.17;129698;1263;114780;-66
2024/01/19 05:19:17;;;;;;;14.40;7.20;;;;;;;-5.32;84.67;99896.30;129880;1259;114686;-63
2024/01/19 05:22:19;;;;;;;13.80;7.20;;;;;;;-5.38;84.44;99901.47;129564;1269;129968;-64
2024/01/19 05:25:21;;;;;;;17.60;8.60;;;;;;;-5.44;84.83;99903.86;129951;1257;114693;-63
2024/01/19 05:28:23;;;;;;;22.20;9.00;;;;;;;-5.47;84.92;99910.97;129889;1260;115138;-64
2024/01/19 05:31:25;;;;;;;16.50;9.80;;;;;;;-5.50;84.86;99913.89;129669;1262;114831;-63
2024/01/19 05:34:27;;;;;;;18.50;9.40;;;;;;;-5.53;85.02;99918.03;129850;1259;114837;-64
2024/01/19 05:37:29;;;;;;;18.40;8.90;;;;;;;-5.55;84.89;99921.48;129971;1259;114706;-63
2024/01/19 05:40:31;;;;;;;17.60;10.50;;;;;;;-5.58;85.06;99926.88;129952;1254;114811;-63
2024/01/19 05:43:33;;;;;;;19.60;12.10;;;;;;;-5.61;85.10;99932.23;129850;1259;114712;-63
2024/01/19 05:46:35;;;;;;;23.20;12.00;;;;;;;-5.65;84.96;99938.63;130018;1256;114729;-63
2024/01/19 05:49:39;;;;;;;18.40;10.60;;;;;;;-5.69;85.07;99949.70;129457;1259;114805;-63
2024/01/19 05:52:41;;;;;;;18.60;10.00;;;;;;;-5.73;84.70;99956.12;129469;1264;114767;-63
2024/01/19 05:55:43;;;;;;;20.60;9.00;;;;;;;-5.76;84.83;99962.85;129712;1256;114752;-64
2024/01/19 05:58:46;;;;;;;17.00;9.20;;;;;;;-5.78;85.05;99966.13;129787;1270;114673;-64
2024/01/19 06:01:48;;;;;;;15.80;8.50;;;;;;;-5.81;84.72;99965.92;129647;1260;114747;-63
2024/01/19 06:04:51;;;;;;;17.20;8.70;;;;;;;-5.83;84.83;99971.47;129641;1279;114771;-63
2024/01/19 06:07:53;;;;;;;18.10;7.90;;;;;;;-5.85;84.86;99975.98;129790;1262;114951;-62
2024/01/19 06:10:55;;;;;;;21.10;10.20;;;;;;;-5.87;84.99;99977.84;129961;1260;115172;-62
2024/01/19 06:13:57;;;;;;;18.60;10.90;;;;;;;-5.88;84.90;99985.85;129765;1262;114775;-63
2024/01/19 06:17:01;;;;;;;21.00;9.70;;;;;;;-5.90;85.26;99987.75;129596;1256;114970;-63
2024/01/19 06:20:03;;;;;;;18.20;9.50;;;;;;;-5.91;85.42;99988.06;129735;1259;114897;-63
2024/01/19 06:23:06;;;;;;;20.50;10.30;;;;;;;-5.91;85.44;99989.45;129728;1259;114705;-63
2024/01/19 06:26:11;;;;;;;23.90;11.40;;;;;;;-5.91;85.50;99996.77;129857;1259;116227;-63
2024/01/19 06:29:16;;;;;;;20.70;10.40;;;;;;;-5.92;85.38;100001.97;129906;1259;114794;-62
2024/01/19 06:32:18;;;;;;;23.40;10.50;;;;;;;-5.91;85.38;100006.31;129842;1256;114725;-62
2024/01/19 06:35:20;;;;;;;22.90;10.50;;;;;;;-5.92;85.78;100009.80;129791;1259;114735;-63
2024/01/19 06:38:23;;;;;;;21.60;11.40;;;;;;;-5.93;85.69;100006.83;129688;1270;114817;-62
2024/01/19 06:41:25;;;;;;;20.70;10.20;;;;;;;-5.93;85.55;100005.42;129716;1260;114723;-62
2024/01/19 06:44:27;;;;;;;19.30;10.70;;;;;;;-5.94;85.50;100007.68;129651;1256;114739;-62
2024/01/19 06:47:29;;;;;;;20.40;11.50;;;;;;;-5.94;85.46;100008.90;129753;1270;115159;-62
2024/01/19 06:50:31;;;;;;;20.80;10.60;;;;;;;-5.95;85.70;100014.27;129506;1259;114801;-61
2024/01/19 06:53:33;;;;;;;23.90;12.30;;;;;;;-5.95;85.40;100016.70;129853;1259;114783;-62
2024/01/19 06:56:35;;;;;;;24.70;12.70;;;;;;;-5.95;85.40;100016.20;129916;1259;114742;-62
2024/01/19 06:59:37;;;;;;;22.30;12.50;;;;;;;-5.95;85.73;100017.06;129523;1266;114914;-62
2024/01/19 07:02:39;;;;;;;25.80;12.20;;;;;;;-5.93;85.78;100023.85;129852;1259;114720;-62
2024/01/19 07:05:42;;;;;;;20.90;11.40;;;;;;;-5.92;85.26;100021.96;129967;1261;114732;-61
2024/01/19 07:08:45;;;;;;;22.30;11.50;;;;;;;-5.91;85.66;100023.73;129627;1259;128466;-61
2024/01/19 07:11:47;;;;;;;19.70;10.60;;;;;;;-5.88;85.53;100024.63;129890;1260;114715;-62
2024/01/19 07:14:49;;;;;;;22.00;10.20;;;;;;;-5.87;85.41;100028.11;129949;1277;114835;-62
2024/01/19 07:17:51;;;;;;;25.20;11.50;;;;;;;-5.84;85.33;100029.38;129959;1259;114616;-62
2024/01/19 07:20:55;;;;;;;22.50;12.10;;;;;;;-5.81;85.23;100032.55;129895;1254;115365;-62
2024/01/19 07:23:57;;;;;;;23.10;11.70;;;;;;;-5.77;85.23;100032.77;129972;1259;114706;-62
2024/01/19 07:26:59;;;;;;;23.70;12.40;;;;;;;-5.74;85.66;100034.02;130076;1274;114773;-62
2024/01/19 07:30:01;;;;;;;27.70;12.80;;;;;;;-5.71;85.19;100033.71;129672;1269;128710;-62
2024/01/19 07:33:05;;;;;;;24.70;13.40;;;;;;;-5.66;85.01;100036.38;129589;1260;114726;-63
2024/01/19 07:36:07;;;;;;;19.60;11.50;;;;;;;-5.60;85.43;100042.53;130009;1258;116330;-62
2024/01/19 07:39:09;;;;;;;22.70;12.60;;;;;;;-5.54;85.12;100045.73;130030;1259;116364;-62
2024/01/19 07:42:11;;;;;;;24.90;12.10;;;;;;;-5.47;85.50;100044.77;129968;1259;114790;-62
2024/01/19 07:45:13;;;;;;;24.30;12.10;;;;;;;-5.41;85.58;100044.49;129846;1270;115317;-62
2024/01/19 07:48:15;;;;;;;26.00;12.70;;;;;;;-5.34;85.69;100049.80;130103;1259;114668;-61
2024/01/19 07:51:18;;;;;;;22.80;13.80;;;;;;;-5.26;85.73;100052.14;129776;1274;128436;-62
2024/01/19 07:54:21;;;;;;;26.40;12.70;;;;;;;-5.18;85.52;100055.88;129835;1259;114861;-62
2024/01/19 07:57:23;;;;;;;24.70;12.70;;;;;;;-5.10;85.96;100058.23;129930;1259;114721;-61
2024/01/19 08:00:25;;;;;;;25.80;12.00;;;;;;;-5.00;85.72;100057.97;129926;1256;114824;-62
2024/01/19 08:03:27;;;;;;;24.80;13.10;;;;;;;-4.90;85.84;100052.49;129564;1265;114802;-63
2024/01/19 08:06:29;;;;;;;26.30;14.00;;;;;;;-4.80;86.17;100051.38;130020;1259;114889;-63
2024/01/19 08:09:31;;;;;;;40.50;18.80;;;;;;;-4.69;85.45;100054.60;129824;1268;114816;-62
2024/01/19 08:12:33;;;;;;;64.50;24.50;;;;;;;-4.56;86.01;100054.52;129453;1257;128368;-62
2024/01/19 08:15:35;;;;;;;49.60;20.50;;;;;;;-4.42;85.90;100060.39;129790;1259;114874;-63
2024/01/19 08:18:37;;;;;;;42.80;17.70;;;;;;;-4.27;86.07;100061.89;129927;1259;114842;-63
2024/01/19 08:21:43;;;;;;;27.30;14.00;;;;;;;-4.12;86.13;100063.55;129532;1263;114818;-62
2024/01/19 08:24:45;;;;;;;30.00;14.00;;;;;;;-3.97;86.24;100065.91;129510;1270;115264;-62
2024/01/19 08:27:47;;;;;;;23.90;12.70;;;;;;;-3.83;86.15;100065.82;129667;1259;114792;-63
2024/01/19 08:30:49;;;;;;;24.60;12.40;;;;;;;-3.70;85.92;100068.67;129909;1278;114744;-63
2024/01/19 08:33:51;;;;;;;22.90;12.60;;;;;;;-3.59;85.89;100068.72;129593;1261;128595;-62
2024/01/19 08:36:53;;;;;;;23.20;11.00;;;;;;;-3.47;85.78;100073.84;129695;1259;114702;-62
2024/01/19 08:39:58;;;;;;;24.50;11.50;;;;;;;-3.36;85.97;100073.89;129848;1259;115618;-62
2024/01/19 08:43:00;;;;;;;22.20;10.40;;;;;;;-3.26;85.74;100073.21;129571;1273;115016;-62
2024/01/19 08:46:03;;;;;;;18.70;9.00;;;;;;;-3.18;85.42;100080.04;129639;1259;115370;-62
2024/01/19 08:49:06;;;;;;;22.30;10.40;;;;;;;-3.12;85.47;100084.27;129924;1269;114767;-62
2024/01/19 08:52:08;;;;;;;23.10;10.70;;;;;;;-3.06;85.15;100087.41;129775;1264;114813;-62
2024/01/19 08:55:10;;;;;;;26.70;12.20;;;;;;;-3.01;85.04;100089.70;129494;1277;128357;-62
2024/01/19 08:58:12;;;;;;;23.10;13.10;;;;;;;-2.98;85.08;100095.47;129625;1260;114732;-62
2024/01/19 09:01:20;;;;;;;24.10;10.50;;;;;;;-2.94;84.91;100102.65;129862;1261;114866;-63
2024/01/19 09:04:22;;;;;;;18.90;10.70;;;;;;;-2.94;84.83;100103.87;129979;1275;114811;-62
2024/01/19 09:07:24;;;;;;;21.20;11.20;;;;;;;-2.94;84.51;100111.73;129917;1269;114703;-63
2024/01/19 09:10:27;;;;;;;22.10;10.80;;;;;;;-2.95;84.62;100123.96;129989;1278;114985;-62
2024/01/19 09:13:29;;;;;;;21.00;9.50;;;;;;;-2.98;84.08;100127.80;129835;1269;114881;-63
2024/01/19 09:16:31;;;;;;;19.50;10.30;;;;;;;-3.02;84.21;100136.34;129779;1268;114757;-63
2024/01/19 09:19:34;;;;;;;22.10;11.70;;;;;;;-3.03;84.54;100147.17;129737;1270;115925;-63
2024/01/19 09:22:35;;;;;;;25.40;12.70;;;;;;;-3.05;84.16;100155.55;129677;1270;114866;-63
2024/01/19 09:25:37;;;;;;;27.50;13.50;;;;;;;-3.08;83.83;100158.35;129834;1259;114830;-62
2024/01/19 09:28:40;;;;;;;27.30;14.50;;;;;;;-3.10;83.74;100162.88;129960;1256;114834;-62
2024/01/19 09:31:43;;;;;;;60.00;24.20;;;;;;;-3.08;84.03;100174.92;129912;1259;114692;-62
2024/01/19 09:34:45;;;;;;;52.70;20.00;;;;;;;-3.07;83.94;100171.80;130110;1269;115083;-62
2024/01/19 09:37:47;;;;;;;29.10;17.10;;;;;;;-3.08;84.05;100173.89;129995;1256;114785;-63
2024/01/19 09:40:59;;;;;;;31.30;16.40;;;;;;;-3.09;83.66;100180.70;129965;1260;114829;-63
2024/01/19 09:44:02;;;;;;;30.30;13.40;;;;;;;-3.10;83.33;100188.71;129720;1263;114783;-64
2024/01/19 09:47:17;;;;;;;27.80;12.60;;;;;;;-3.14;83.42;100191.33;129664;1262;114837;-62
2024/01/19 09:50:23;;;;;;;23.90;11.80;;;;;;;-3.16;83.42;100196.56;129606;1265;114857;-62
2024/01/19 09:53:32;;;;;;;28.40;13.30;;;;;;;-3.17;83.30;100194.63;129519;1268;114880;-63
2024/01/19 09:56:36;;;;;;;36.40;17.20;;;;;;;-3.15;83.50;100196.92;129846;1260;128859;-62
2024/01/19 09:59:38;;;;;;;39.50;18.30;;;;;;;-3.13;83.59;100200.94;129674;1264;114911;-62
2024/01/19 10:03:00;;;;;;;49.00;21.90;;;;;;;-3.07;83.52;100199.57;129927;1259;114737;-62
2024/01/19 10:06:03;;;;;;;48.30;21.90;;;;;;;-2.98;83.26;100199.25;129664;1271;116111;-63
2024/01/19 10:09:05;;;;;;;41.30;17.90;;;;;;;-2.89;83.50;100199.64;129936;1267;115230;-62
2024/01/19 10:12:09;;;;;;;31.90;14.30;;;;;;;-2.78;83.85;100202.83;129772;1270;114815;-62
2024/01/19 10:15:13;;;;;;;29.60;12.90;;;;;;;-2.61;84.57;100198.67;129721;1260;114750;-60
2024/01/19 10:18:16;;;;;;;36.00;17.80;;;;;;;-2.46;84.01;100193.81;129615;1262;114833;-61
2024/01/19 10:21:30;;;;;;;23.30;11.10;;;;;;;-2.35;84.26;100194.02;130006;1260;115147;-61
2024/01/19 10:24:32;;;;;;;18.30;8.40;;;;;;;-2.20;84.75;100188.61;129882;1266;114747;-62
2024/01/19 10:27:39;;;;;;;16.90;7.80;;;;;;;-2.07;84.91;100185.11;129925;1260;114833;-62
2024/01/19 10:30:41;;;;;;;18.40;8.30;;;;;;;-1.95;84.43;100183.71;130008;1260;114705;-62
2024/01/19 10:33:48;;;;;;;17.70;9.00;;;;;;;-1.83;84.19;100183.17;129987;1259;115377;-62
2024/01/19 10:36:51;;;;;;;17.90;7.80;;;;;;;-1.71;84.22;100184.05;129695;1263;114853;-62
2024/01/19 10:39:53;;;;;;;19.90;9.60;;;;;;;-1.60;84.40;100182.98;129973;1275;114947;-63
2024/01/19 10:42:58;;;;;;;19.30;8.70;;;;;;;-1.50;84.15;100181.73;129822;1260;114765;-63
2024/01/19 10:46:21;;;;;;;17.30;6.80;;;;;;;-1.41;84.12;100185.20;129586;1272;115401;-62
2024/01/19 10:49:23;;;;;;;16.50;8.00;;;;;;;-1.29;84.32;100185.17;129670;1260;114849;-62
2024/01/19 10:52:25;;;;;;;12.60;6.50;;;;;;;-1.19;84.01;100182.52;130080;1259;114730;-62
2024/01/19 10:55:29;;;;;;;16.60;5.50;;;;;;;-1.07;83.53;100182.83;129902;1274;114916;-62
2024/01/19 10:58:34;;;;;;;12.60;5.80;;;;;;;-0.99;83.73;100181.92;129508;1269;114719;-61
2024/01/19 11:01:37;;;;;;;9.20;5.10;;;;;;;-0.90;83.47;100183.64;129757;1278;128922;-61
2024/01/19 11:04:40;;;;;;;18.60;7.80;;;;;;;-0.83;83.25;100183.61;129923;1270;114704;-62
2024/01/19 11:07:42;;;;;;;15.40;5.40;;;;;;;-0.74;83.39;100178.30;129850;1258;114753;-62
2024/01/19 11:10:47;;;;;;;11.80;5.60;;;;;;;-0.66;83.53;100170.54;129877;1272;115346;-62
2024/01/19 11:13:50;;;;;;;11.50;5.10;;;;;;;-0.58;83.42;100168.21;129480;1263;274425;-62
2024/01/19 11:16:54;;;;;;;11.40;5.00;;;;;;;-0.52;83.13;100168.70;129794;1268;115046;-63
2024/01/19 11:19:56;;;;;;;11.40;4.80;;;;;;;-0.46;82.94;100170.23;129548;1275;127740;-62
2024/01/19 11:23:00;;;;;;;10.50;4.30;;;;;;;-0.38;83.10;100167.02;129894;1263;115222;-63
2024/01/19 11:26:26;;;;;;;11.10;4.30;;;;;;;-0.30;83.08;100166.28;129844;1261;115162;-63
2024/01/19 11:29:33;;;;;;;11.60;4.50;;;;;;;-0.23;82.84;100172.54;129791;1263;114732;-63
2024/01/19 11:32:35;;;;;;;10.10;4.20;;;;;;;-0.18;82.67;100172.51;129495;1270;114803;-64
2024/01/19 11:35:41;;;;;;;8.90;4.80;;;;;;;-0.13;82.54;100172.29;129605;1273;114914;-64
2024/01/19 11:38:46;;;;;;;14.40;4.30;;;;;;;-0.08;82.35;100168.04;129759;1260;114720;-63
2024/01/19 11:41:48;;;;;;;12.50;4.60;;;;;;;-0.03;82.56;100167.66;129683;1261;114977;-63
2024/01/19 11:44:51;;;;;;;15.70;5.30;;;;;;;0.02;82.40;100166.71;130020;1260;114792;-63
2024/01/19 11:47:56;;;;;;;11.10;5.20;;;;;;;0.07;81.93;100171.25;129925;1278;114821;-63
2024/01/19 11:50:59;;;;;;;12.50;4.80;;;;;;;0.11;81.97;100174.02;129664;1260;127912;-63
2024/01/19 11:54:03;;;;;;;9.60;5.00;;;;;;;0.16;82.04;100177.49;129965;1260;115257;-62
2024/01/19 11:57:25;;;;;;;12.50;4.40;;;;;;;0.20;82.02;100176.75;129627;1264;114713;-64
2024/01/19 12:00:29;;;;;;;9.60;4.30;;;;;;;0.25;81.96;100183.20;129557;1254;114956;-64
2024/01/19 12:03:31;;;;;;;7.20;3.40;;;;;;;0.29;81.75;100182.98;129918;1269;115350;-62
2024/01/19 12:06:34;;;;;;;11.50;4.50;;;;;;;0.33;81.73;100179.44;130073;1274;114736;-63
2024/01/19 12:09:36;;;;;;;10.10;4.10;;;;;;;0.38;81.30;100182.73;129899;1260;114798;-63
2024/01/19 12:12:39;;;;;;;9.10;4.40;;;;;;;0.41;81.63;100180.42;129889;1260;114803;-62
2024/01/19 12:15:43;;;;;;;9.10;3.40;;;;;;;0.44;81.26;100181.96;129683;1263;114864;-62
2024/01/19 12:18:45;;;;;;;12.40;3.60;;;;;;;0.49;81.27;100183.86;129650;1263;115066;-62
2024/01/19 12:21:47;;;;;;;10.10;4.80;;;;;;;0.52;81.20;100187.16;129960;1260;115132;-63
2024/01/19 12:24:49;;;;;;;10.50;3.40;;;;;;;0.56;81.02;100190.64;129694;1270;114687;-62
2024/01/19 12:28:05;;;;;;;13.60;3.70;;;;;;;0.58;80.69;100185.88;129479;1277;128533;-63
2024/01/19 12:31:24;;;;;;;15.60;3.60;;;;;;;0.62;80.75;100183.38;129457;1260;114898;-62
2024/01/19 12:34:26;;;;;;;7.80;3.20;;;;;;;0.65;80.71;100184.58;129886;1258;114682;-62
2024/01/19 12:37:28;;;;;;;8.70;3.90;;;;;;;0.66;80.50;100186.85;129999;1258;115406;-63
2024/01/19 12:40:34;;;;;;;7.20;3.40;;;;;;;0.68;80.22;100186.64;129982;1277;114780;-62
2024/01/19 12:43:36;;;;;;;8.20;3.60;;;;;;;0.70;80.20;100186.98;129591;1278;114820;-62
2024/01/19 12:46:46;;;;;;;10.20;3.70;;;;;;;0.71;80.05;100193.46;129897;1260;114757;-62
2024/01/19 12:49:49;;;;;;;6.90;3.40;;;;;;;0.70;80.04;100202.27;129906;1260;114732;-62
2024/01/19 12:52:51;;;;;;;8.60;3.20;;;;;;;0.70;79.80;100204.91;129560;1268;114859;-64
2024/01/19 12:55:53;;;;;;;8.10;3.80;;;;;;;0.70;79.91;100202.98;129876;1278;114747;-63
2024/01/19 12:59:08;;;;;;;8.80;3.60;;;;;;;0.71;79.78;100206.12;129840;1258;114744;-63
2024/01/19 13:02:11;;;;;;;5.90;2.50;;;;;;;0.73;79.74;100213.48;129617;1257;114869;-63
2024/01/19 13:05:21;;;;;;;7.70;2.90;;;;;;;0.76;79.79;100216.79;129986;1270;114785;-62
2024/01/19 13:08:23;;;;;;;6.30;2.90;;;;;;;0.78;79.74;100216.25;130011;1263;115147;-62
2024/01/19 13:11:25;;;;;;;8.60;4.10;;;;;;;0.79;79.35;100220.11;129923;1261;114709;-62
2024/01/19 13:14:27;;;;;;;5.50;2.70;;;;;;;0.78;79.67;100223.11;129815;1260;114875;-63
2024/01/19 13:17:30;;;;;;;10.60;4.30;;;;;;;0.76;79.63;100228.58;129875;1260;115182;-63
2024/01/19 13:20:33;;;;;;;8.50;2.90;;;;;;;0.77;79.22;100234.71;129652;1263;114797;-63
2024/01/19 13:23:35;;;;;;;10.10;3.40;;;;;;;0.76;79.25;100234.72;129721;1260;128538;-63
2024/01/19 13:26:38;;;;;;;14.60;4.70;;;;;;;0.77;79.17;100229.26;129947;1254;114809;-64
2024/01/19 13:29:40;;;;;;;13.30;5.40;;;;;;;0.75;79.53;100227.70;129976;1260;115667;-64
2024/01/19 13:32:42;;;;;;;9.00;3.70;;;;;;;0.75;79.32;100233.67;129916;1259;114741;-63
2024/01/19 13:35:47;;;;;;;13.50;4.60;;;;;;;0.73;78.89;100242.32;129952;1270;114652;-62
2024/01/19 13:38:49;;;;;;;7.60;3.70;;;;;;;0.73;79.36;100251.81;129866;1254;115237;-64
2024/01/19 13:41:51;;;;;;;9.30;3.90;;;;;;;0.73;79.41;100263.75;129889;1260;114696;-64
2024/01/19 13:44:53;;;;;;;10.30;4.60;;;;;;;0.75;79.06;100260.91;130100;1270;114703;-63
2024/01/19 13:47:55;;;;;;;8.50;3.30;;;;;;;0.79;79.36;100269.15;129656;1259;114889;-63